createdAt,value
2022-11-26T00:00:58.649Z,65.03
2022-11-26T00:03:28.222Z,65.61
2022-11-26T00:05:58.549Z,65.65
2022-11-26T00:08:32.374Z,66.01
2022-11-26T00:11:02.405Z,66.45
2022-11-26T00:13:32.485Z,65.70
2022-11-26T00:16:02.479Z,66.29
2022-11-26T00:18:31.989Z,66.24
2022-11-26T00:21:01.876Z,66.91
2022-11-26T00:23:32.940Z,66.93
2022-11-26T00:26:03.391Z,67.54
2022-11-26T00:28:33.901Z,66.96
2022-11-26T00:31:04.078Z,67.16
2022-11-26T00:33:33.681Z,67.79
2022-11-26T00:36:04.277Z,67.88
2022-11-26T00:38:35.860Z,67.37
2022-11-26T00:41:05.465Z,67.27
2022-11-26T00:43:35.011Z,67.08
2022-11-26T00:46:15.897Z,67.59
2022-11-26T00:48:45.457Z,68.20
2022-11-26T00:51:16.689Z,67.92
2022-11-26T00:53:46.738Z,68.19
2022-11-26T00:56:18.248Z,67.12
2022-11-26T00:58:48.363Z,67.45
2022-11-26T01:01:25.480Z,67.26
2022-11-26T01:03:55.666Z,67.50
2022-11-26T01:06:28.794Z,67.40
2022-11-26T01:08:58.517Z,67.40
2022-11-26T01:11:28.618Z,67.31
2022-11-26T01:14:01.067Z,67.30
2022-11-26T01:16:35.699Z,68.14
2022-11-26T01:19:05.685Z,67.46
2022-11-26T01:21:35.173Z,67.94
2022-11-26T01:24:05.045Z,67.45
2022-11-26T01:26:35.791Z,68.40
2022-11-26T01:29:05.586Z,67.75
2022-11-26T01:31:36.521Z,68.10
2022-11-26T01:34:06.568Z,67.88
2022-11-26T01:36:37.041Z,67.92
2022-11-26T01:39:08.084Z,68.19
2022-11-26T01:41:44.074Z,67.95
2022-11-26T01:44:17.995Z,67.79
2022-11-26T01:46:49.665Z,68.38
2022-11-26T01:49:20.784Z,68.67
2022-11-26T01:51:52.015Z,68.07
2022-11-26T01:54:21.634Z,68.19
2022-11-26T01:56:52.668Z,68.21
2022-11-26T01:59:24.589Z,68.84
2022-11-26T02:01:56.260Z,68.60
2022-11-26T02:04:28.211Z,69.02
2022-11-26T02:06:58.300Z,68.63
2022-11-26T02:09:29.384Z,68.57
2022-11-26T02:12:00.793Z,68.77
2022-11-26T02:14:32.539Z,68.95
2022-11-26T02:17:09.693Z,68.96
2022-11-26T02:19:53.831Z,69.08
2022-11-26T02:22:37.711Z,68.68
2022-11-26T02:25:12.281Z,69.30
2022-11-26T02:28:01.564Z,70.00
2022-11-26T02:30:33.568Z,69.92
2022-11-26T02:33:05.867Z,69.29
2022-11-26T02:35:39.516Z,69.81
2022-11-26T02:38:10.850Z,69.83
2022-11-26T02:40:40.508Z,70.44
2022-11-26T02:43:10.418Z,70.27
2022-11-26T02:45:43.634Z,69.72
2022-11-26T02:48:17.079Z,70.81
2022-11-26T02:50:48.456Z,70.57
2022-11-26T02:53:19.192Z,70.24
2022-11-26T02:55:49.598Z,70.41
2022-11-26T02:58:19.547Z,70.62
2022-11-26T03:00:51.211Z,70.60
2022-11-26T03:03:26.060Z,71.04
2022-11-26T03:05:57.089Z,70.56
2022-11-26T03:08:27.450Z,71.04
2022-11-26T03:10:56.968Z,70.74
2022-11-26T03:13:27.154Z,70.60
2022-11-26T03:15:58.782Z,70.40
2022-11-26T03:18:28.380Z,70.63
2022-11-26T03:20:58.051Z,70.66
2022-11-26T03:23:27.569Z,71.26
2022-11-26T03:25:57.248Z,70.84
2022-11-26T03:28:26.787Z,70.90
2022-11-26T03:30:56.488Z,71.00
2022-11-26T03:33:27.400Z,70.87
2022-11-26T03:35:57.079Z,71.57
2022-11-26T03:38:26.791Z,71.46
2022-11-26T03:40:57.241Z,71.60
2022-11-26T03:43:26.795Z,71.76
2022-11-26T03:45:56.583Z,71.17
2022-11-26T03:48:27.599Z,71.29
2022-11-26T03:50:57.125Z,71.60
2022-11-26T03:53:26.722Z,71.87
2022-11-26T03:55:56.468Z,71.68
2022-11-26T03:58:25.947Z,71.23
2022-11-26T04:00:55.605Z,71.97
2022-11-26T04:03:25.246Z,71.59
2022-11-26T04:05:56.189Z,71.39
2022-11-26T04:08:25.726Z,72.03
2022-11-26T04:10:55.316Z,72.41
2022-11-26T04:13:26.948Z,72.24
2022-11-26T04:15:57.004Z,72.16
2022-11-26T04:18:26.501Z,72.10
2022-11-26T04:20:57.464Z,72.43
2022-11-26T04:23:27.050Z,72.02
2022-11-26T04:25:56.620Z,71.99
2022-11-26T04:28:26.523Z,71.17
2022-11-26T04:30:56.069Z,71.47
2022-11-26T04:33:26.999Z,71.38
2022-11-26T04:35:57.972Z,71.81
2022-11-26T04:38:27.576Z,71.53
2022-11-26T04:40:57.094Z,71.46
2022-11-26T04:43:26.607Z,71.72
2022-11-26T04:45:56.255Z,71.64
2022-11-26T04:48:25.751Z,71.58
2022-11-26T04:50:55.269Z,71.27
2022-11-26T04:53:26.194Z,71.49
2022-11-26T04:55:55.853Z,71.38
2022-11-26T04:58:25.282Z,71.78
2022-11-26T05:00:54.967Z,71.61
2022-11-26T05:03:24.532Z,72.27
2022-11-26T05:05:54.253Z,72.25
2022-11-26T05:08:23.805Z,71.96
2022-11-26T05:10:55.652Z,71.50
2022-11-26T05:13:25.584Z,72.32
2022-11-26T05:15:55.736Z,72.02
2022-11-26T05:18:25.287Z,71.63
2022-11-26T05:20:54.776Z,71.52
2022-11-26T05:23:24.193Z,72.15
2022-11-26T05:25:55.125Z,71.21
2022-11-26T05:28:24.653Z,72.34
2022-11-26T05:30:58.906Z,72.36
2022-11-26T05:33:28.720Z,73.13
2022-11-26T05:35:58.319Z,72.99
2022-11-26T05:38:27.981Z,72.34
2022-11-26T05:40:58.837Z,72.85
2022-11-26T05:43:28.759Z,72.86
2022-11-26T05:45:58.341Z,72.47
2022-11-26T05:48:28.125Z,72.39
2022-11-26T05:50:58.019Z,71.62
2022-11-26T05:53:28.146Z,71.68
2022-11-26T05:55:59.019Z,72.75
2022-11-26T05:58:29.029Z,72.65
2022-11-26T06:00:58.612Z,73.29
2022-11-26T06:03:28.458Z,72.63
2022-11-26T06:05:58.144Z,72.10
2022-11-26T06:08:27.597Z,72.26
2022-11-26T06:10:57.133Z,71.80
2022-11-26T06:13:28.149Z,71.69
2022-11-26T06:15:57.846Z,71.76
2022-11-26T06:18:27.358Z,72.12
2022-11-26T06:21:00.476Z,71.74
2022-11-26T06:23:30.232Z,71.48
2022-11-26T06:25:59.932Z,72.13
2022-11-26T06:28:30.993Z,71.78
2022-11-26T06:31:00.779Z,71.77
2022-11-26T06:33:30.582Z,71.77
2022-11-26T06:36:01.155Z,71.99
2022-11-26T06:38:30.724Z,72.35
2022-11-26T06:41:01.132Z,72.10
2022-11-26T06:43:32.318Z,71.49
2022-11-26T06:46:02.600Z,71.82
2022-11-26T06:48:32.127Z,71.53
2022-11-26T06:51:04.581Z,71.92
2022-11-26T06:53:34.458Z,71.90
2022-11-26T07:56:10.844Z,64.86
2022-11-26T07:58:41.895Z,64.35
2022-11-26T08:01:15.330Z,63.35
2022-11-26T08:03:48.271Z,63.10
2022-11-26T08:06:19.907Z,60.57
2022-11-26T08:08:49.837Z,60.61
2022-11-26T08:11:23.231Z,60.78
2022-11-26T08:13:55.486Z,59.78
2022-11-26T08:16:28.580Z,60.06
2022-11-26T08:19:00.853Z,59.79
2022-11-26T08:21:30.635Z,58.61
2022-11-26T08:24:00.401Z,59.78
2022-11-26T08:26:36.152Z,58.38
2022-11-26T08:29:07.505Z,58.71
2022-11-26T08:31:45.293Z,59.46
2022-11-26T08:34:17.663Z,58.92
2022-11-26T08:36:47.600Z,59.69
2022-11-26T08:39:19.556Z,59.27
2022-11-26T08:41:52.662Z,59.00
2022-11-26T08:44:23.110Z,58.84
2022-11-26T08:46:52.847Z,59.25
2022-11-26T08:49:22.656Z,58.77
2022-11-26T08:51:52.503Z,58.08
2022-11-26T08:54:22.244Z,57.83
2022-11-26T08:56:53.822Z,58.81
2022-11-26T08:59:24.394Z,58.82
2022-11-26T09:01:54.235Z,57.63
2022-11-26T09:04:24.103Z,57.19
2022-11-26T09:06:53.878Z,56.78
2022-11-26T09:09:23.641Z,56.15
2022-11-26T09:11:59.496Z,56.80
2022-11-26T09:14:31.701Z,55.73
2022-11-26T09:17:01.865Z,56.44
2022-11-26T09:19:32.085Z,56.84
2022-11-26T09:22:02.633Z,56.47
2022-11-26T09:24:32.600Z,56.09
2022-11-26T09:27:07.821Z,55.71
2022-11-26T09:29:38.193Z,55.76
2022-11-26T09:32:24.513Z,56.46
2022-11-26T09:34:55.828Z,56.19
2022-11-26T09:37:25.634Z,56.29
2022-11-26T09:39:55.621Z,56.10
2022-11-26T09:42:39.747Z,56.06
2022-11-26T09:45:19.026Z,55.54
2022-11-26T09:47:53.504Z,54.84
2022-11-26T09:50:31.795Z,55.17
2022-11-26T09:53:06.089Z,55.00
2022-11-26T09:55:38.892Z,55.67
2022-11-26T09:58:25.316Z,54.24
2022-11-26T10:00:59.382Z,54.22
2022-11-26T10:03:34.561Z,54.38
2022-11-26T10:06:08.618Z,54.25
2022-11-26T10:09:04.208Z,53.63
2022-11-26T10:11:41.172Z,53.63
2022-11-26T10:14:28.670Z,52.62
2022-11-26T10:17:12.374Z,52.19
2022-11-26T10:19:54.542Z,52.50
2022-11-26T10:22:29.894Z,52.93
2022-11-26T10:25:03.163Z,53.14
2022-11-26T10:27:36.054Z,52.34
2022-11-26T10:30:18.380Z,52.16
2022-11-26T10:32:50.539Z,52.50
2022-11-26T10:35:22.841Z,51.44
2022-11-26T10:37:53.329Z,51.59
2022-11-26T10:40:25.812Z,50.96
2022-11-26T10:43:05.297Z,51.50
2022-11-26T10:45:41.566Z,51.00
2022-11-26T10:48:26.613Z,49.55
2022-11-26T10:51:06.262Z,49.89
2022-11-26T10:53:51.873Z,50.95
2022-11-26T10:56:25.042Z,50.79
2022-11-26T10:59:05.078Z,51.57
2022-11-26T11:01:39.624Z,50.86
2022-11-26T11:04:24.974Z,51.05
2022-11-26T11:06:55.088Z,50.51
2022-11-26T11:09:31.865Z,49.50
2022-11-26T11:12:20.796Z,48.58
2022-11-26T11:14:52.436Z,49.74
2022-11-26T11:17:32.126Z,49.71
2022-11-26T11:20:22.124Z,49.06
2022-11-26T11:22:58.990Z,48.68
2022-11-26T11:25:31.704Z,48.99
2022-11-26T11:28:11.975Z,48.79
2022-11-26T11:30:43.369Z,48.26
2022-11-26T11:33:21.612Z,47.58
2022-11-26T11:36:03.480Z,48.16
2022-11-26T11:38:35.224Z,48.54
2022-11-26T11:41:14.942Z,48.23
2022-11-26T11:43:45.067Z,47.43
2022-11-26T11:46:42.834Z,46.46
2022-11-26T11:49:24.489Z,48.38
2022-11-26T11:52:08.162Z,49.72
2022-11-26T11:54:54.531Z,48.06
2022-11-26T11:57:40.486Z,47.74
2022-11-26T12:00:16.236Z,47.22
2022-11-26T12:03:17.001Z,47.57
2022-11-26T12:06:20.332Z,48.63
2022-11-26T12:09:03.803Z,49.92
2022-11-26T12:11:42.506Z,47.63
2022-11-26T12:14:17.580Z,48.32
2022-11-26T12:16:54.322Z,48.57
2022-11-26T12:19:35.664Z,48.24
2022-11-26T12:22:16.441Z,48.77
2022-11-26T12:24:50.318Z,49.28
2022-11-26T12:27:29.003Z,48.99
2022-11-26T12:30:04.992Z,49.20
2022-11-26T12:32:40.768Z,47.08
2022-11-26T12:35:16.055Z,46.94
2022-11-26T12:37:51.723Z,46.42
2022-11-26T12:40:32.936Z,47.47
2022-11-26T12:43:11.521Z,47.08
2022-11-26T12:45:52.653Z,46.79
2022-11-26T12:48:35.832Z,48.41
2022-11-26T12:51:18.325Z,50.49
2022-11-26T12:53:58.702Z,50.27
2022-11-26T12:56:34.001Z,51.13
2022-11-26T12:59:10.867Z,50.26
2022-11-26T13:01:42.066Z,49.67
2022-11-26T13:04:36.580Z,50.20
2022-11-26T13:07:21.496Z,50.75
2022-11-26T13:10:04.025Z,51.21
2022-11-26T13:12:46.767Z,50.78
2022-11-26T13:15:25.994Z,50.77
2022-11-26T13:17:58.420Z,50.18
2022-11-26T13:20:49.133Z,50.66
2022-11-26T13:23:38.229Z,49.86
2022-11-26T13:26:23.674Z,50.89
2022-11-26T13:29:29.032Z,50.98
2022-11-26T13:32:14.806Z,50.17
2022-11-26T13:35:01.864Z,50.42
2022-11-26T13:37:47.931Z,50.19
2022-11-26T13:40:53.503Z,49.71
2022-11-26T13:43:58.617Z,50.12
2022-11-26T13:46:32.058Z,50.08
2022-11-26T13:49:07.818Z,49.91
2022-11-26T13:51:43.402Z,50.13
2022-11-26T13:54:18.530Z,50.58
2022-11-26T13:56:49.347Z,49.32
2022-11-26T13:59:27.974Z,48.70
2022-11-26T14:01:58.478Z,48.73
2022-11-26T14:04:56.095Z,49.85
2022-11-26T14:07:27.266Z,49.76
2022-11-26T14:10:00.130Z,49.79
2022-11-26T14:13:04.150Z,49.84
2022-11-26T14:15:57.387Z,50.55
2022-11-26T14:19:00.612Z,50.07
2022-11-26T14:21:31.610Z,50.29
2022-11-26T14:24:01.906Z,51.18
2022-11-26T14:26:37.389Z,51.68
2022-11-26T14:29:17.540Z,52.08
2022-11-26T14:31:55.210Z,52.46
2022-11-26T14:34:32.735Z,52.44
2022-11-26T14:37:03.409Z,53.06
2022-11-26T14:39:33.213Z,52.89
2022-11-26T14:42:06.360Z,52.56
2022-11-26T14:44:36.668Z,53.50
2022-11-26T14:47:17.509Z,53.48
2022-11-26T14:49:51.079Z,54.25
2022-11-26T14:52:25.016Z,54.11
2022-11-26T14:54:57.396Z,53.93
2022-11-26T14:57:32.353Z,54.09
2022-11-26T15:00:09.017Z,54.50
2022-11-26T15:02:42.522Z,55.12
2022-11-26T15:05:16.451Z,55.58
2022-11-26T15:07:47.023Z,55.67
2022-11-26T15:10:22.102Z,55.93
2022-11-26T15:12:53.861Z,56.47
2022-11-26T15:15:25.569Z,55.98
2022-11-26T15:18:00.087Z,57.30
2022-11-26T15:20:30.534Z,56.49
2022-11-26T15:23:03.719Z,57.36
2022-11-26T15:25:37.153Z,57.12
2022-11-26T15:28:17.409Z,58.07
2022-11-26T15:30:56.980Z,57.60
2022-11-26T15:33:29.727Z,56.99
2022-11-26T15:36:00.364Z,57.11
2022-11-26T15:38:32.441Z,58.82
2022-11-26T15:41:07.927Z,58.26
2022-11-26T15:43:44.093Z,58.61
2022-11-26T15:46:19.150Z,58.16
2022-11-26T15:48:54.487Z,58.81
2022-11-26T15:51:34.971Z,58.38
2022-11-26T15:54:21.660Z,58.20
2022-11-26T15:56:55.089Z,58.50
2022-11-26T15:59:27.149Z,59.11
2022-11-26T16:01:57.137Z,59.64
2022-11-26T16:04:45.873Z,60.37
2022-11-26T16:07:17.891Z,60.43
2022-11-26T16:09:49.408Z,60.32
2022-11-26T16:12:29.215Z,60.76
2022-11-26T16:15:19.752Z,61.97
2022-11-26T16:17:51.106Z,61.81
2022-11-26T16:20:25.510Z,61.43
2022-11-26T16:22:59.141Z,61.86
2022-11-26T16:25:31.666Z,62.56
2022-11-26T16:28:06.620Z,62.49
2022-11-26T16:30:36.869Z,62.29
2022-11-26T16:33:07.253Z,62.31
2022-11-26T16:35:46.895Z,62.69
2022-11-26T16:38:20.889Z,63.52
2022-11-26T16:40:51.151Z,63.12
2022-11-26T16:43:21.805Z,63.76
2022-11-26T16:45:55.414Z,63.67
2022-11-26T16:48:26.796Z,63.15
2022-11-26T16:50:58.434Z,63.49
2022-11-26T16:53:28.294Z,63.54
2022-11-26T16:55:58.838Z,64.06
2022-11-26T16:58:30.572Z,64.71
2022-11-26T17:01:00.822Z,64.88
2022-11-26T17:03:33.163Z,65.22
2022-11-26T17:06:12.368Z,65.22
2022-11-26T17:08:47.924Z,65.22
2022-11-26T17:11:19.621Z,64.79
2022-11-26T17:13:49.864Z,65.30
2022-11-26T17:16:21.993Z,65.61
2022-11-26T17:18:51.994Z,65.04
2022-11-26T17:21:23.211Z,65.28
2022-11-26T17:23:53.083Z,66.06
2022-11-26T17:26:25.043Z,66.25
2022-11-26T17:28:55.023Z,66.65
2022-11-26T17:31:24.897Z,65.65
2022-11-26T17:33:54.729Z,65.50
2022-11-26T17:36:25.951Z,64.67
2022-11-26T17:38:55.886Z,65.44
2022-11-26T17:41:25.804Z,65.28
2022-11-26T17:43:55.731Z,65.07
2022-11-26T17:46:25.897Z,64.71
2022-11-26T17:48:59.779Z,64.76
2022-11-26T17:51:31.287Z,65.06
2022-11-26T17:54:01.155Z,65.21
2022-11-26T17:56:31.316Z,64.71
2022-11-26T17:59:02.641Z,65.12
2022-11-26T18:01:32.448Z,65.13
2022-11-26T18:04:02.393Z,64.85
2022-11-26T18:06:47.418Z,65.28
2022-11-26T18:09:17.508Z,65.70
2022-11-26T18:11:50.364Z,65.40
2022-11-26T18:14:20.941Z,65.14
2022-11-26T18:16:51.280Z,65.30
2022-11-26T18:19:23.049Z,65.25
2022-11-26T18:21:54.177Z,65.41
2022-11-26T18:24:24.176Z,65.53
2022-11-26T18:26:56.400Z,66.14
2022-11-26T18:29:27.645Z,66.20
2022-11-26T18:31:57.670Z,65.87
2022-11-26T18:34:27.472Z,66.21
2022-11-26T18:36:58.658Z,65.97
2022-11-26T18:39:28.445Z,66.15
2022-11-26T18:42:29.498Z,66.06
2022-11-26T18:44:48.304Z,65.62
2022-11-26T18:47:18.097Z,65.63
2022-11-26T18:49:48.235Z,65.88
2022-11-26T18:52:19.531Z,65.84
2022-11-26T18:54:49.455Z,66.36
2022-11-26T18:57:19.332Z,66.55
2022-11-26T18:59:50.619Z,66.39
2022-11-26T19:02:20.533Z,65.99
2022-11-26T19:04:50.700Z,66.08
2022-11-26T19:07:21.854Z,65.70
2022-11-26T19:09:52.243Z,65.48
2022-11-26T19:12:22.970Z,65.61
2022-11-26T19:14:53.237Z,66.65
2022-11-26T19:17:23.829Z,66.83
2022-11-26T19:19:53.723Z,66.55
2022-11-26T19:22:25.129Z,66.73
2022-11-26T19:24:54.948Z,66.55
2022-11-26T19:27:24.854Z,66.99
2022-11-26T19:29:54.674Z,66.78
2022-11-26T19:32:25.092Z,67.14
2022-11-26T19:34:55.454Z,67.77
2022-11-26T19:37:26.720Z,67.49
2022-11-26T19:39:56.872Z,67.58
2022-11-26T19:42:26.689Z,67.76
2022-11-26T19:44:56.930Z,67.73
2022-11-26T19:47:27.038Z,67.54
2022-11-26T19:49:57.048Z,67.64
2022-11-26T19:52:28.279Z,67.55
2022-11-26T19:54:58.436Z,67.47
2022-11-26T19:57:28.258Z,67.98
2022-11-26T19:59:58.263Z,67.23
2022-11-26T20:02:28.201Z,67.68
2022-11-26T20:04:58.152Z,68.03
2022-11-26T20:07:29.480Z,68.06
2022-11-26T20:09:59.499Z,68.29
2022-11-26T20:12:29.918Z,68.64
2022-11-26T20:15:00.981Z,68.05
2022-11-26T20:17:31.340Z,67.88
2022-11-26T20:20:01.124Z,68.23
2022-11-26T20:22:34.396Z,68.39
2022-11-26T20:25:04.886Z,69.06
2022-11-26T20:27:34.681Z,69.32
2022-11-26T20:30:04.905Z,68.70
2022-11-26T20:32:34.745Z,69.03
2022-11-26T20:35:04.917Z,69.48
2022-11-26T20:37:36.150Z,68.51
2022-11-26T20:40:07.441Z,68.78
2022-11-26T20:42:38.487Z,68.71
2022-11-26T20:45:08.667Z,68.03
2022-11-26T20:47:38.569Z,68.27
2022-11-26T20:50:10.795Z,68.28
2022-11-26T20:52:42.136Z,67.58
2022-11-26T20:55:12.109Z,67.61
2022-11-26T20:57:41.930Z,67.55
2022-11-26T21:00:16.913Z,68.04
2022-11-26T21:02:47.540Z,68.31
2022-11-26T21:05:18.354Z,68.61
2022-11-26T21:07:51.312Z,68.12
2022-11-26T21:10:25.144Z,68.17
2022-11-26T21:12:56.354Z,69.01
2022-11-26T21:15:26.674Z,68.79
2022-11-26T21:17:56.753Z,69.06
2022-11-26T21:20:27.512Z,69.77
2022-11-26T21:23:00.640Z,69.80
2022-11-26T21:25:30.528Z,69.33
2022-11-26T21:28:00.337Z,70.16
2022-11-26T21:30:30.252Z,69.85
2022-11-26T21:33:03.211Z,69.83
2022-11-26T21:35:36.144Z,70.00
2022-11-26T21:38:07.876Z,69.62
2022-11-26T21:40:37.912Z,70.17
2022-11-26T21:43:07.960Z,70.53
2022-11-26T22:26:57.705Z,71.50
2022-11-26T22:29:28.094Z,71.11
2022-11-26T22:31:57.799Z,71.49
2022-11-26T22:34:29.162Z,70.74
2022-11-26T22:36:59.020Z,71.25
2022-11-26T22:39:30.588Z,72.03
2022-11-26T22:42:01.873Z,71.77
2022-11-26T22:44:32.247Z,71.60
2022-11-26T22:47:02.035Z,71.28
2022-11-26T22:49:31.901Z,71.17
2022-11-26T22:52:01.716Z,71.14
2022-11-26T22:54:31.470Z,71.51
2022-11-26T22:57:02.617Z,70.80
2022-11-26T22:59:32.557Z,70.91
2022-11-26T23:02:02.231Z,71.54
2022-11-26T23:04:32.056Z,71.76
2022-11-26T23:07:01.892Z,72.30
2022-11-26T23:09:31.854Z,72.02
2022-11-26T23:12:03.856Z,71.48
2022-11-26T23:14:34.103Z,71.85
2022-11-26T23:17:04.446Z,71.95
2022-11-26T23:19:34.504Z,71.83
2022-11-26T23:22:04.745Z,71.48
2022-11-26T23:24:34.553Z,71.79
2022-11-26T23:27:05.686Z,71.61
2022-11-26T23:29:35.971Z,72.00
2022-11-26T23:32:05.800Z,71.91
2022-11-26T23:34:35.569Z,71.73
2022-11-26T23:37:05.293Z,72.45
2022-11-26T23:39:35.041Z,72.35
2022-11-26T23:42:06.544Z,72.72
2022-11-26T23:44:36.298Z,72.27
2022-11-26T23:47:06.165Z,72.69
2022-11-26T23:49:35.995Z,72.82
2022-11-26T23:52:06.175Z,72.77
2022-11-26T23:54:36.119Z,72.74
2022-11-26T23:57:11.828Z,72.80
2022-11-26T23:59:44.625Z,73.14
